sensor_id;sensor_type;location;lat;lon;timestamp;P1;durP1;ratioP1;P2;durP2;ratioP2
42682;SDS011;28293;50.930;3.464;2024-01-15T00:01:29;14.60;;;8.95;;
42682;SDS011;28293;50.930;3.464;2024-01-15T00:03:55;13.68;;;8.38;;
42682;SDS011;28293;50.930;3.464;2024-01-15T00:06:20;11.73;;;8.10;;
42682;SDS011;28293;50.930;3.464;2024-01-15T00:08:46;11.43;;;8.10;;
42682;SDS011;28293;50.930;3.464;2024-01-15T00:11:12;12.80;;;7.47;;
42682;SDS011;28293;50.930;3.464;2024-01-15T00:13:37;14.20;;;9.40;;
42682;SDS011;28293;50.930;3.464;2024-01-15T00:16:06;12.27;;;8.27;;
42682;SDS011;28293;50.930;3.464;2024-01-15T00:18:31;16.17;;;9.25;;
42682;SDS011;28293;50.930;3.464;2024-01-15T00:20:57;13.25;;;8.77;;
42682;SDS011;28293;50.930;3.464;2024-01-15T00:23:23;12.07;;;8.27;;
42682;SDS011;28293;50.930;3.464;2024-01-15T00:25:50;11.73;;;7.30;;
42682;SDS011;28293;50.930;3.464;2024-01-15T00:28:16;12.98;;;8.48;;
42682;SDS011;28293;50.930;3.464;2024-01-15T00:30:42;12.93;;;8.30;;
42682;SDS011;28293;50.930;3.464;2024-01-15T00:33:07;13.30;;;7.70;;
42682;SDS011;28293;50.930;3.464;2024-01-15T00:35:33;10.20;;;6.70;;
42682;SDS011;28293;50.930;3.464;2024-01-15T00:37:59;11.93;;;7.22;;
42682;SDS011;28293;50.930;3.464;2024-01-15T00:40:25;12.40;;;7.65;;
42682;SDS011;28293;50.930;3.464;2024-01-15T00:42:50;10.80;;;7.13;;
42682;SDS011;28293;50.930;3.464;2024-01-15T00:45:16;12.25;;;6.80;;
42682;SDS011;28293;50.930;3.464;2024-01-15T00:47:42;10.63;;;7.22;;
42682;SDS011;28293;50.930;3.464;2024-01-15T00:50:07;11.00;;;6.57;;
42682;SDS011;28293;50.930;3.464;2024-01-15T00:52:33;9.88;;;6.75;;
42682;SDS011;28293;50.930;3.464;2024-01-15T00:54:59;10.30;;;6.50;;
42682;SDS011;28293;50.930;3.464;2024-01-15T00:57:25;10.63;;;6.78;;
42682;SDS011;28293;50.930;3.464;2024-01-15T00:59:50;12.40;;;6.93;;
42682;SDS011;28293;50.930;3.464;2024-01-15T01:02:16;12.50;;;6.18;;
42682;SDS011;28293;50.930;3.464;2024-01-15T01:04:42;12.82;;;6.78;;
42682;SDS011;28293;50.930;3.464;2024-01-15T01:07:08;12.30;;;6.55;;
42682;SDS011;28293;50.930;3.464;2024-01-15T01:09:33;12.80;;;6.50;;
42682;SDS011;28293;50.930;3.464;2024-01-15T01:11:59;12.77;;;7.68;;
42682;SDS011;28293;50.930;3.464;2024-01-15T01:14:24;15.50;;;8.10;;
42682;SDS011;28293;50.930;3.464;2024-01-15T01:16:50;12.55;;;6.40;;
42682;SDS011;28293;50.930;3.464;2024-01-15T01:19:16;11.15;;;6.53;;
42682;SDS011;28293;50.930;3.464;2024-01-15T01:21:41;11.52;;;6.00;;
42682;SDS011;28293;50.930;3.464;2024-01-15T01:24:07;13.10;;;6.43;;
42682;SDS011;28293;50.930;3.464;2024-01-15T01:26:32;11.63;;;6.60;;
42682;SDS011;28293;50.930;3.464;2024-01-15T01:28:58;12.20;;;6.00;;
42682;SDS011;28293;50.930;3.464;2024-01-15T01:31:24;11.40;;;5.63;;
42682;SDS011;28293;50.930;3.464;2024-01-15T01:33:50;9.68;;;5.55;;
42682;SDS011;28293;50.930;3.464;2024-01-15T01:36:15;10.48;;;5.80;;
42682;SDS011;28293;50.930;3.464;2024-01-15T01:38:41;12.00;;;6.47;;
42682;SDS011;28293;50.930;3.464;2024-01-15T01:41:07;12.77;;;6.05;;
42682;SDS011;28293;50.930;3.464;2024-01-15T01:43:32;12.82;;;6.10;;
42682;SDS011;28293;50.930;3.464;2024-01-15T01:45:58;10.35;;;6.53;;
42682;SDS011;28293;50.930;3.464;2024-01-15T01:48:25;9.63;;;5.80;;
42682;SDS011;28293;50.930;3.464;2024-01-15T01:50:54;10.23;;;5.10;;
42682;SDS011;28293;50.930;3.464;2024-01-15T01:53:23;13.57;;;5.93;;
42682;SDS011;28293;50.930;3.464;2024-01-15T01:55:51;10.02;;;4.38;;
42682;SDS011;28293;50.930;3.464;2024-01-15T01:58:18;9.38;;;4.55;;
42682;SDS011;28293;50.930;3.464;2024-01-15T02:00:45;7.95;;;4.30;;
42682;SDS011;28293;50.930;3.464;2024-01-15T02:03:11;8.80;;;4.10;;
42682;SDS011;28293;50.930;3.464;2024-01-15T02:05:37;8.85;;;3.88;;
42682;SDS011;28293;50.930;3.464;2024-01-15T02:08:05;9.45;;;3.60;;
42682;SDS011;28293;50.930;3.464;2024-01-15T02:10:31;8.43;;;3.55;;
42682;SDS011;28293;50.930;3.464;2024-01-15T02:12:57;8.55;;;3.58;;
42682;SDS011;28293;50.930;3.464;2024-01-15T02:15:22;7.65;;;3.40;;
42682;SDS011;28293;50.930;3.464;2024-01-15T02:17:58;5.88;;;3.33;;
42682;SDS011;28293;50.930;3.464;2024-01-15T02:20:32;11.80;;;3.80;;
42682;SDS011;28293;50.930;3.464;2024-01-15T02:23:07;7.43;;;3.80;;
42682;SDS011;28293;50.930;3.464;2024-01-15T02:25:41;8.25;;;5.65;;
42682;SDS011;28293;50.930;3.464;2024-01-15T02:28:10;10.30;;;7.22;;
42682;SDS011;28293;50.930;3.464;2024-01-15T02:30:38;11.63;;;5.78;;
42682;SDS011;28293;50.930;3.464;2024-01-15T02:33:05;11.85;;;5.97;;
42682;SDS011;28293;50.930;3.464;2024-01-15T02:35:31;14.27;;;5.85;;
42682;SDS011;28293;50.930;3.464;2024-01-15T02:37:57;12.60;;;5.53;;
42682;SDS011;28293;50.930;3.464;2024-01-15T02:40:22;15.32;;;5.82;;
42682;SDS011;28293;50.930;3.464;2024-01-15T02:42:48;12.25;;;5.55;;
42682;SDS011;28293;50.930;3.464;2024-01-15T02:45:13;10.93;;;6.15;;
42682;SDS011;28293;50.930;3.464;2024-01-15T02:47:39;14.05;;;6.03;;
42682;SDS011;28293;50.930;3.464;2024-01-15T02:50:05;10.88;;;6.68;;
42682;SDS011;28293;50.930;3.464;2024-01-15T02:52:31;13.65;;;6.63;;
42682;SDS011;28293;50.930;3.464;2024-01-15T02:54:57;11.63;;;5.68;;
42682;SDS011;28293;50.930;3.464;2024-01-15T02:57:22;13.45;;;5.43;;
42682;SDS011;28293;50.930;3.464;2024-01-15T02:59:48;12.43;;;5.40;;
42682;SDS011;28293;50.930;3.464;2024-01-15T03:02:14;10.80;;;4.57;;
42682;SDS011;28293;50.930;3.464;2024-01-15T03:04:43;13.82;;;4.45;;
42682;SDS011;28293;50.930;3.464;2024-01-15T03:07:09;11.13;;;5.43;;
42682;SDS011;28293;50.930;3.464;2024-01-15T03:09:35;11.25;;;4.57;;
42682;SDS011;28293;50.930;3.464;2024-01-15T03:12:00;11.45;;;4.72;;
42682;SDS011;28293;50.930;3.464;2024-01-15T03:14:26;11.93;;;5.00;;
42682;SDS011;28293;50.930;3.464;2024-01-15T03:16:52;13.45;;;5.05;;
42682;SDS011;28293;50.930;3.464;2024-01-15T03:19:18;15.32;;;5.03;;
42682;SDS011;28293;50.930;3.464;2024-01-15T03:21:44;10.30;;;4.38;;
42682;SDS011;28293;50.930;3.464;2024-01-15T03:24:09;12.30;;;4.85;;
42682;SDS011;28293;50.930;3.464;2024-01-15T03:26:35;9.07;;;4.90;;
42682;SDS011;28293;50.930;3.464;2024-01-15T03:29:01;10.88;;;4.60;;
42682;SDS011;28293;50.930;3.464;2024-01-15T03:31:26;9.52;;;5.18;;
42682;SDS011;28293;50.930;3.464;2024-01-15T03:33:52;12.50;;;4.65;;
42682;SDS011;28293;50.930;3.464;2024-01-15T03:36:17;12.90;;;5.50;;
42682;SDS011;28293;50.930;3.464;2024-01-15T03:38:43;12.25;;;5.47;;
42682;SDS011;28293;50.930;3.464;2024-01-15T03:41:09;15.80;;;5.13;;
42682;SDS011;28293;50.930;3.464;2024-01-15T03:43:34;12.32;;;4.90;;
42682;SDS011;28293;50.930;3.464;2024-01-15T03:46:00;13.25;;;4.50;;
42682;SDS011;28293;50.930;3.464;2024-01-15T03:48:27;9.48;;;3.83;;
42682;SDS011;28293;50.930;3.464;2024-01-15T03:50:52;11.85;;;4.50;;
42682;SDS011;28293;50.930;3.464;2024-01-15T03:53:18;12.70;;;4.28;;
42682;SDS011;28293;50.930;3.464;2024-01-15T03:55:44;9.07;;;3.78;;
42682;SDS011;28293;50.930;3.464;2024-01-15T03:58:09;12.30;;;3.72;;
42682;SDS011;28293;50.930;3.464;2024-01-15T04:00:35;10.20;;;3.70;;
42682;SDS011;28293;50.930;3.464;2024-01-15T04:03:00;12.75;;;4.22;;
42682;SDS011;28293;50.930;3.464;2024-01-15T04:05:26;9.77;;;4.20;;
42682;SDS011;28293;50.930;3.464;2024-01-15T04:07:52;13.52;;;3.70;;
42682;SDS011;28293;50.930;3.464;2024-01-15T04:10:17;7.07;;;2.70;;
42682;SDS011;28293;50.930;3.464;2024-01-15T04:12:43;7.57;;;3.05;;
42682;SDS011;28293;50.930;3.464;2024-01-15T04:15:11;10.68;;;3.25;;
42682;SDS011;28293;50.930;3.464;2024-01-15T04:17:37;7.75;;;3.00;;
42682;SDS011;28293;50.930;3.464;2024-01-15T04:20:03;7.47;;;3.50;;
42682;SDS011;28293;50.930;3.464;2024-01-15T04:22:29;9.63;;;3.45;;
42682;SDS011;28293;50.930;3.464;2024-01-15T04:24:55;7.80;;;3.15;;
42682;SDS011;28293;50.930;3.464;2024-01-15T04:27:21;7.22;;;2.92;;
42682;SDS011;28293;50.930;3.464;2024-01-15T04:29:47;7.65;;;3.65;;
42682;SDS011;28293;50.930;3.464;2024-01-15T04:32:12;6.63;;;3.15;;
42682;SDS011;28293;50.930;3.464;2024-01-15T04:34:38;9.48;;;3.40;;
42682;SDS011;28293;50.930;3.464;2024-01-15T04:37:03;9.30;;;3.88;;
42682;SDS011;28293;50.930;3.464;2024-01-15T04:39:29;9.20;;;3.10;;
42682;SDS011;28293;50.930;3.464;2024-01-15T04:41:55;6.20;;;2.85;;
42682;SDS011;28293;50.930;3.464;2024-01-15T04:44:20;10.68;;;3.25;;
42682;SDS011;28293;50.930;3.464;2024-01-15T04:46:46;7.32;;;3.42;;
42682;SDS011;28293;50.930;3.464;2024-01-15T04:49:11;5.55;;;3.20;;
42682;SDS011;28293;50.930;3.464;2024-01-15T04:51:37;7.63;;;3.20;;
42682;SDS011;28293;50.930;3.464;2024-01-15T04:54:03;9.23;;;3.42;;
42682;SDS011;28293;50.930;3.464;2024-01-15T04:56:29;7.85;;;2.83;;
42682;SDS011;28293;50.930;3.464;2024-01-15T04:58:54;7.32;;;2.65;;
42682;SDS011;28293;50.930;3.464;2024-01-15T05:01:20;7.05;;;2.90;;
42682;SDS011;28293;50.930;3.464;2024-01-15T05:03:46;8.75;;;2.83;;
42682;SDS011;28293;50.930;3.464;2024-01-15T05:06:11;8.48;;;2.60;;
42682;SDS011;28293;50.930;3.464;2024-01-15T05:08:37;8.07;;;2.47;;
42682;SDS011;28293;50.930;3.464;2024-01-15T05:11:03;7.72;;;2.47;;
42682;SDS011;28293;50.930;3.464;2024-01-15T05:13:28;7.05;;;1.85;;
42682;SDS011;28293;50.930;3.464;2024-01-15T05:15:54;7.95;;;2.60;;
42682;SDS011;28293;50.930;3.464;2024-01-15T05:18:20;10.73;;;4.00;;
42682;SDS011;28293;50.930;3.464;2024-01-15T05:20:45;7.97;;;2.67;;
42682;SDS011;28293;50.930;3.464;2024-01-15T05:23:11;9.57;;;2.72;;
42682;SDS011;28293;50.930;3.464;2024-01-15T05:25:37;6.80;;;2.70;;
42682;SDS011;28293;50.930;3.464;2024-01-15T05:28:02;7.95;;;2.70;;
42682;SDS011;28293;50.930;3.464;2024-01-15T05:30:28;8.20;;;2.63;;
42682;SDS011;28293;50.930;3.464;2024-01-15T05:32:54;5.85;;;2.88;;
42682;SDS011;28293;50.930;3.464;2024-01-15T05:35:19;7.43;;;2.78;;
42682;SDS011;28293;50.930;3.464;2024-01-15T05:37:45;8.38;;;3.05;;
42682;SDS011;28293;50.930;3.464;2024-01-15T05:40:11;11.88;;;3.38;;
42682;SDS011;28293;50.930;3.464;2024-01-15T05:42:38;9.23;;;3.35;;
42682;SDS011;28293;50.930;3.464;2024-01-15T05:45:04;9.38;;;3.35;;
42682;SDS011;28293;50.930;3.464;2024-01-15T05:47:30;11.55;;;3.53;;
42682;SDS011;28293;50.930;3.464;2024-01-15T05:49:56;12.25;;;3.88;;
42682;SDS011;28293;50.930;3.464;2024-01-15T05:52:23;9.52;;;3.30;;
42682;SDS011;28293;50.930;3.464;2024-01-15T05:54:49;12.25;;;4.10;;
42682;SDS011;28293;50.930;3.464;2024-01-15T05:57:15;11.75;;;3.80;;
42682;SDS011;28293;50.930;3.464;2024-01-15T05:59:40;9.73;;;3.38;;
42682;SDS011;28293;50.930;3.464;2024-01-15T06:02:08;12.23;;;4.10;;
42682;SDS011;28293;50.930;3.464;2024-01-15T06:04:33;10.85;;;3.47;;
42682;SDS011;28293;50.930;3.464;2024-01-15T06:06:59;10.50;;;3.30;;
42682;SDS011;28293;50.930;3.464;2024-01-15T06:09:25;8.68;;;3.00;;
42682;SDS011;28293;50.930;3.464;2024-01-15T06:11:50;14.95;;;4.10;;
42682;SDS011;28293;50.930;3.464;2024-01-15T06:14:16;11.75;;;3.88;;
42682;SDS011;28293;50.930;3.464;2024-01-15T06:16:41;13.82;;;3.65;;
42682;SDS011;28293;50.930;3.464;2024-01-15T06:19:07;10.50;;;2.83;;
42682;SDS011;28293;50.930;3.464;2024-01-15T06:21:33;11.45;;;3.00;;
42682;SDS011;28293;50.930;3.464;2024-01-15T06:23:58;11.38;;;3.75;;
42682;SDS011;28293;50.930;3.464;2024-01-15T06:26:24;10.75;;;3.38;;
42682;SDS011;28293;50.930;3.464;2024-01-15T06:28:50;11.70;;;3.55;;
42682;SDS011;28293;50.930;3.464;2024-01-15T06:31:15;12.10;;;3.80;;
42682;SDS011;28293;50.930;3.464;2024-01-15T06:33:41;8.25;;;3.10;;
42682;SDS011;28293;50.930;3.464;2024-01-15T06:36:07;10.70;;;3.00;;
42682;SDS011;28293;50.930;3.464;2024-01-15T06:38:33;12.30;;;3.60;;
42682;SDS011;28293;50.930;3.464;2024-01-15T06:40:59;11.25;;;3.00;;
42682;SDS011;28293;50.930;3.464;2024-01-15T06:43:25;9.70;;;2.72;;
42682;SDS011;28293;50.930;3.464;2024-01-15T06:45:51;16.15;;;3.17;;
42682;SDS011;28293;50.930;3.464;2024-01-15T06:48:16;12.25;;;3.28;;
42682;SDS011;28293;50.930;3.464;2024-01-15T06:50:42;12.55;;;2.75;;
42682;SDS011;28293;50.930;3.464;2024-01-15T06:53:08;9.73;;;3.00;;
42682;SDS011;28293;50.930;3.464;2024-01-15T06:55:33;10.45;;;2.75;;
42682;SDS011;28293;50.930;3.464;2024-01-15T06:57:59;12.40;;;2.53;;
42682;SDS011;28293;50.930;3.464;2024-01-15T07:00:25;10.80;;;2.65;;
42682;SDS011;28293;50.930;3.464;2024-01-15T07:02:52;8.82;;;2.92;;
42682;SDS011;28293;50.930;3.464;2024-01-15T07:05:18;11.80;;;2.92;;
42682;SDS011;28293;50.930;3.464;2024-01-15T07:07:45;9.65;;;2.88;;
42682;SDS011;28293;50.930;3.464;2024-01-15T07:10:10;11.10;;;3.65;;
42682;SDS011;28293;50.930;3.464;2024-01-15T07:12:36;9.63;;;2.97;;
42682;SDS011;28293;50.930;3.464;2024-01-15T07:15:02;6.35;;;2.60;;
42682;SDS011;28293;50.930;3.464;2024-01-15T07:17:29;8.45;;;2.70;;
42682;SDS011;28293;50.930;3.464;2024-01-15T07:19:56;8.82;;;2.92;;
42682;SDS011;28293;50.930;3.464;2024-01-15T07:22:21;9.20;;;2.63;;
42682;SDS011;28293;50.930;3.464;2024-01-15T07:24:47;10.82;;;2.95;;
42682;SDS011;28293;50.930;3.464;2024-01-15T07:27:12;8.73;;;2.88;;
42682;SDS011;28293;50.930;3.464;2024-01-15T07:29:38;10.57;;;3.90;;
42682;SDS011;28293;50.930;3.464;2024-01-15T07:32:04;7.53;;;2.90;;
42682;SDS011;28293;50.930;3.464;2024-01-15T07:34:30;11.65;;;4.43;;
42682;SDS011;28293;50.930;3.464;2024-01-15T07:36:56;14.50;;;3.92;;
42682;SDS011;28293;50.930;3.464;2024-01-15T07:39:22;7.47;;;2.97;;
42682;SDS011;28293;50.930;3.464;2024-01-15T07:41:49;11.73;;;3.72;;
42682;SDS011;28293;50.930;3.464;2024-01-15T07:44:15;7.10;;;3.22;;
42682;SDS011;28293;50.930;3.464;2024-01-15T07:46:45;8.95;;;2.78;;
42682;SDS011;28293;50.930;3.464;2024-01-15T07:49:11;14.15;;;3.58;;
42682;SDS011;28293;50.930;3.464;2024-01-15T07:51:37;8.80;;;2.50;;
42682;SDS011;28293;50.930;3.464;2024-01-15T07:54:05;8.68;;;3.08;;
42682;SDS011;28293;50.930;3.464;2024-01-15T07:56:31;7.40;;;2.88;;
42682;SDS011;28293;50.930;3.464;2024-01-15T07:58:57;12.52;;;3.05;;
42682;SDS011;28293;50.930;3.464;2024-01-15T08:01:23;10.45;;;2.90;;
42682;SDS011;28293;50.930;3.464;2024-01-15T08:03:49;11.60;;;3.05;;
42682;SDS011;28293;50.930;3.464;2024-01-15T08:06:14;9.20;;;2.78;;
42682;SDS011;28293;50.930;3.464;2024-01-15T08:08:40;7.90;;;2.72;;
42682;SDS011;28293;50.930;3.464;2024-01-15T08:11:06;10.35;;;3.15;;
42682;SDS011;28293;50.930;3.464;2024-01-15T08:13:32;9.82;;;2.88;;
42682;SDS011;28293;50.930;3.464;2024-01-15T08:15:58;9.75;;;3.40;;
42682;SDS011;28293;50.930;3.464;2024-01-15T08:18:26;11.90;;;3.75;;
42682;SDS011;28293;50.930;3.464;2024-01-15T08:20:53;11.95;;;3.40;;
42682;SDS011;28293;50.930;3.464;2024-01-15T08:23:19;16.40;;;4.15;;
42682;SDS011;28293;50.930;3.464;2024-01-15T08:25:45;11.80;;;3.92;;
42682;SDS011;28293;50.930;3.464;2024-01-15T08:28:11;10.35;;;3.60;;
42682;SDS011;28293;50.930;3.464;2024-01-15T08:30:36;10.95;;;2.60;;
42682;SDS011;28293;50.930;3.464;2024-01-15T08:33:02;17.33;;;3.60;;
42682;SDS011;28293;50.930;3.464;2024-01-15T08:35:28;11.80;;;3.00;;
42682;SDS011;28293;50.930;3.464;2024-01-15T08:37:54;10.30;;;3.88;;
42682;SDS011;28293;50.930;3.464;2024-01-15T08:40:20;12.25;;;3.30;;
42682;SDS011;28293;50.930;3.464;2024-01-15T08:42:46;10.70;;;3.63;;
42682;SDS011;28293;50.930;3.464;2024-01-15T08:45:12;16.45;;;5.07;;
42682;SDS011;28293;50.930;3.464;2024-01-15T08:47:37;14.07;;;4.07;;
42682;SDS011;28293;50.930;3.464;2024-01-15T08:50:03;10.70;;;3.78;;
42682;SDS011;28293;50.930;3.464;2024-01-15T08:52:30;13.15;;;3.60;;
42682;SDS011;28293;50.930;3.464;2024-01-15T08:54:56;14.07;;;3.17;;
42682;SDS011;28293;50.930;3.464;2024-01-15T08:57:22;13.35;;;3.80;;
42682;SDS011;28293;50.930;3.464;2024-01-15T08:59:48;10.57;;;3.58;;
42682;SDS011;28293;50.930;3.464;2024-01-15T09:02:14;11.13;;;3.33;;
42682;SDS011;28293;50.930;3.464;2024-01-15T09:04:40;9.73;;;3.00;;
42682;SDS011;28293;50.930;3.464;2024-01-15T09:07:09;9.70;;;3.53;;
42682;SDS011;28293;50.930;3.464;2024-01-15T09:09:35;7.68;;;3.03;;
42682;SDS011;28293;50.930;3.464;2024-01-15T09:12:01;9.85;;;3.15;;
42682;SDS011;28293;50.930;3.464;2024-01-15T09:14:27;8.20;;;2.80;;
42682;SDS011;28293;50.930;3.464;2024-01-15T09:16:54;8.85;;;2.70;;
42682;SDS011;28293;50.930;3.464;2024-01-15T09:19:21;8.80;;;3.05;;
42682;SDS011;28293;50.930;3.464;2024-01-15T09:21:46;9.20;;;2.20;;
42682;SDS011;28293;50.930;3.464;2024-01-15T09:24:12;13.05;;;3.10;;
42682;SDS011;28293;50.930;3.464;2024-01-15T09:26:38;12.75;;;2.80;;
42682;SDS011;28293;50.930;3.464;2024-01-15T09:29:04;12.73;;;3.65;;
42682;SDS011;28293;50.930;3.464;2024-01-15T09:31:29;15.23;;;3.90;;
42682;SDS011;28293;50.930;3.464;2024-01-15T09:33:56;21.95;;;5.63;;
42682;SDS011;28293;50.930;3.464;2024-01-15T09:36:23;18.02;;;5.93;;
42682;SDS011;28293;50.930;3.464;2024-01-15T09:38:49;15.70;;;3.88;;
42682;SDS011;28293;50.930;3.464;2024-01-15T09:41:15;14.73;;;4.30;;
42682;SDS011;28293;50.930;3.464;2024-01-15T09:43:41;9.73;;;3.28;;
42682;SDS011;28293;50.930;3.464;2024-01-15T09:46:07;11.30;;;3.83;;
42682;SDS011;28293;50.930;3.464;2024-01-15T09:48:33;10.27;;;2.92;;
42682;SDS011;28293;50.930;3.464;2024-01-15T09:51:00;9.93;;;3.22;;
42682;SDS011;28293;50.930;3.464;2024-01-15T09:53:27;10.25;;;3.00;;
42682;SDS011;28293;50.930;3.464;2024-01-15T09:55:52;9.13;;;2.33;;
42682;SDS011;28293;50.930;3.464;2024-01-15T09:58:18;13.35;;;2.83;;
42682;SDS011;28293;50.930;3.464;2024-01-15T10:00:44;9.88;;;2.45;;
42682;SDS011;28293;50.930;3.464;2024-01-15T10:03:12;7.80;;;2.35;;
42682;SDS011;28293;50.930;3.464;2024-01-15T10:05:38;7.28;;;3.00;;
42682;SDS011;28293;50.930;3.464;2024-01-15T10:08:04;12.55;;;3.38;;
42682;SDS011;28293;50.930;3.464;2024-01-15T10:10:31;10.68;;;3.00;;
42682;SDS011;28293;50.930;3.464;2024-01-15T10:12:57;8.05;;;2.45;;
42682;SDS011;28293;50.930;3.464;2024-01-15T10:15:27;7.40;;;2.53;;
42682;SDS011;28293;50.930;3.464;2024-01-15T10:17:53;10.00;;;2.63;;
42682;SDS011;28293;50.930;3.464;2024-01-15T10:20:19;13.48;;;3.53;;
42682;SDS011;28293;50.930;3.464;2024-01-15T10:22:49;9.30;;;2.90;;
42682;SDS011;28293;50.930;3.464;2024-01-15T10:25:15;9.60;;;2.80;;
42682;SDS011;28293;50.930;3.464;2024-01-15T10:27:41;7.05;;;2.25;;
42682;SDS011;28293;50.930;3.464;2024-01-15T10:30:09;6.70;;;2.58;;
42682;SDS011;28293;50.930;3.464;2024-01-15T10:32:35;8.52;;;2.70;;
42682;SDS011;28293;50.930;3.464;2024-01-15T10:35:03;8.02;;;2.70;;
42682;SDS011;28293;50.930;3.464;2024-01-15T10:37:32;10.75;;;2.58;;
42682;SDS011;28293;50.930;3.464;2024-01-15T10:40:00;8.35;;;2.63;;
42682;SDS011;28293;50.930;3.464;2024-01-15T10:42:30;8.00;;;2.53;;
42682;SDS011;28293;50.930;3.464;2024-01-15T10:44:55;10.60;;;3.05;;
42682;SDS011;28293;50.930;3.464;2024-01-15T10:47:21;9.60;;;2.28;;
42682;SDS011;28293;50.930;3.464;2024-01-15T10:49:48;8.52;;;2.33;;
42682;SDS011;28293;50.930;3.464;2024-01-15T10:52:14;9.68;;;2.15;;
42682;SDS011;28293;50.930;3.464;2024-01-15T10:54:40;8.68;;;2.33;;
42682;SDS011;28293;50.930;3.464;2024-01-15T10:57:08;6.07;;;1.73;;
42682;SDS011;28293;50.930;3.464;2024-01-15T10:59:34;7.22;;;1.63;;
42682;SDS011;28293;50.930;3.464;2024-01-15T11:02:01;6.10;;;1.90;;
42682;SDS011;28293;50.930;3.464;2024-01-15T11:04:27;10.07;;;2.25;;
42682;SDS011;28293;50.930;3.464;2024-01-15T11:06:53;7.18;;;2.65;;
42682;SDS011;28293;50.930;3.464;2024-01-15T11:09:20;8.13;;;2.42;;
42682;SDS011;28293;50.930;3.464;2024-01-15T11:11:46;14.32;;;3.17;;
42682;SDS011;28293;50.930;3.464;2024-01-15T11:17:00;14.68;;;2.60;;
42682;SDS011;28293;50.930;3.464;2024-01-15T11:19:25;8.63;;;2.03;;
42682;SDS011;28293;50.930;3.464;2024-01-15T11:24:39;8.52;;;2.42;;
42682;SDS011;28293;50.930;3.464;2024-01-15T11:27:06;10.35;;;2.42;;
42682;SDS011;28293;50.930;3.464;2024-01-15T11:29:33;12.25;;;2.33;;
42682;SDS011;28293;50.930;3.464;2024-01-15T11:32:07;9.20;;;2.55;;
42682;SDS011;28293;50.930;3.464;2024-01-15T11:37:56;9.05;;;2.35;;
42682;SDS011;28293;50.930;3.464;2024-01-15T11:40:38;6.20;;;1.92;;
42682;SDS011;28293;50.930;3.464;2024-01-15T11:45:31;10.02;;;2.55;;
42682;SDS011;28293;50.930;3.464;2024-01-15T11:48:17;12.40;;;2.60;;
42682;SDS011;28293;50.930;3.464;2024-01-15T11:50:46;8.63;;;2.50;;
42682;SDS011;28293;50.930;3.464;2024-01-15T11:53:27;10.13;;;2.33;;
42682;SDS011;28293;50.930;3.464;2024-01-15T11:56:06;9.57;;;2.55;;
42682;SDS011;28293;50.930;3.464;2024-01-15T11:58:41;11.38;;;2.85;;
42682;SDS011;28293;50.930;3.464;2024-01-15T12:01:08;8.43;;;2.10;;
42682;SDS011;28293;50.930;3.464;2024-01-15T12:03:35;9.27;;;2.95;;
42682;SDS011;28293;50.930;3.464;2024-01-15T12:06:01;8.68;;;2.25;;
42682;SDS011;28293;50.930;3.464;2024-01-15T12:08:30;9.98;;;2.63;;
42682;SDS011;28293;50.930;3.464;2024-01-15T12:10:56;9.43;;;3.70;;
42682;SDS011;28293;50.930;3.464;2024-01-15T12:13:22;11.10;;;2.92;;
42682;SDS011;28293;50.930;3.464;2024-01-15T12:15:48;9.90;;;2.58;;
42682;SDS011;28293;50.930;3.464;2024-01-15T12:18:15;11.70;;;2.80;;
42682;SDS011;28293;50.930;3.464;2024-01-15T12:20:43;13.45;;;3.13;;
42682;SDS011;28293;50.930;3.464;2024-01-15T12:23:11;11.30;;;3.28;;
42682;SDS011;28293;50.930;3.464;2024-01-15T12:25:41;11.00;;;2.65;;
42682;SDS011;28293;50.930;3.464;2024-01-15T12:28:07;8.65;;;2.90;;
42682;SDS011;28293;50.930;3.464;2024-01-15T12:30:34;13.05;;;2.90;;
42682;SDS011;28293;50.930;3.464;2024-01-15T12:33:03;12.00;;;3.70;;
42682;SDS011;28293;50.930;3.464;2024-01-15T12:35:29;13.15;;;3.58;;
42682;SDS011;28293;50.930;3.464;2024-01-15T12:37:55;10.00;;;2.78;;
42682;SDS011;28293;50.930;3.464;2024-01-15T12:40:22;12.30;;;3.70;;
42682;SDS011;28293;50.930;3.464;2024-01-15T12:42:48;11.93;;;3.92;;
42682;SDS011;28293;50.930;3.464;2024-01-15T12:45:14;11.25;;;3.10;;
42682;SDS011;28293;50.930;3.464;2024-01-15T12:47:40;11.35;;;2.95;;
42682;SDS011;28293;50.930;3.464;2024-01-15T12:50:07;9.63;;;2.65;;
42682;SDS011;28293;50.930;3.464;2024-01-15T12:52:37;10.77;;;2.92;;
42682;SDS011;28293;50.930;3.464;2024-01-15T12:55:05;11.85;;;3.28;;
42682;SDS011;28293;50.930;3.464;2024-01-15T12:57:32;14.00;;;3.78;;
42682;SDS011;28293;50.930;3.464;2024-01-15T12:59:59;12.77;;;3.83;;
42682;SDS011;28293;50.930;3.464;2024-01-15T13:02:24;13.70;;;3.60;;
42682;SDS011;28293;50.930;3.464;2024-01-15T13:04:50;9.23;;;2.80;;
42682;SDS011;28293;50.930;3.464;2024-01-15T13:07:16;10.32;;;3.58;;
42682;SDS011;28293;50.930;3.464;2024-01-15T13:09:42;10.13;;;3.95;;
42682;SDS011;28293;50.930;3.464;2024-01-15T13:12:08;10.85;;;2.83;;
42682;SDS011;28293;50.930;3.464;2024-01-15T13:14:34;12.77;;;3.45;;
42682;SDS011;28293;50.930;3.464;2024-01-15T13:17:00;8.05;;;3.33;;
42682;SDS011;28293;50.930;3.464;2024-01-15T13:19:25;10.68;;;2.30;;
42682;SDS011;28293;50.930;3.464;2024-01-15T13:21:52;12.85;;;3.38;;
42682;SDS011;28293;50.930;3.464;2024-01-15T13:24:18;18.27;;;3.15;;
42682;SDS011;28293;50.930;3.464;2024-01-15T13:26:45;11.35;;;3.38;;
42682;SDS011;28293;50.930;3.464;2024-01-15T13:29:10;8.10;;;2.70;;
42682;SDS011;28293;50.930;3.464;2024-01-15T13:31:37;15.07;;;3.15;;
42682;SDS011;28293;50.930;3.464;2024-01-15T13:34:03;11.10;;;3.00;;
42682;SDS011;28293;50.930;3.464;2024-01-15T13:36:29;10.02;;;2.45;;
42682;SDS011;28293;50.930;3.464;2024-01-15T13:38:54;10.68;;;2.85;;
42682;SDS011;28293;50.930;3.464;2024-01-15T13:41:21;14.23;;;3.97;;
42682;SDS011;28293;50.930;3.464;2024-01-15T13:43:50;9.02;;;2.85;;
42682;SDS011;28293;50.930;3.464;2024-01-15T13:46:18;9.00;;;3.30;;
42682;SDS011;28293;50.930;3.464;2024-01-15T13:48:45;12.32;;;2.75;;
42682;SDS011;28293;50.930;3.464;2024-01-15T13:51:10;14.60;;;3.35;;
42682;SDS011;28293;50.930;3.464;2024-01-15T13:53:39;8.48;;;3.05;;
42682;SDS011;28293;50.930;3.464;2024-01-15T13:56:05;10.38;;;3.20;;
42682;SDS011;28293;50.930;3.464;2024-01-15T13:58:32;13.25;;;5.32;;
42682;SDS011;28293;50.930;3.464;2024-01-15T14:00:59;16.02;;;3.58;;
42682;SDS011;28293;50.930;3.464;2024-01-15T14:03:25;11.38;;;2.58;;
42682;SDS011;28293;50.930;3.464;2024-01-15T14:05:51;8.82;;;2.40;;
42682;SDS011;28293;50.930;3.464;2024-01-15T14:08:18;13.75;;;3.03;;
42682;SDS011;28293;50.930;3.464;2024-01-15T14:10:43;11.32;;;2.60;;
42682;SDS011;28293;50.930;3.464;2024-01-15T14:13:10;9.77;;;2.83;;
42682;SDS011;28293;50.930;3.464;2024-01-15T14:15:35;12.45;;;3.08;;
42682;SDS011;28293;50.930;3.464;2024-01-15T14:18:02;10.70;;;3.15;;
42682;SDS011;28293;50.930;3.464;2024-01-15T14:20:28;11.55;;;3.05;;
42682;SDS011;28293;50.930;3.464;2024-01-15T14:22:53;11.07;;;2.90;;
42682;SDS011;28293;50.930;3.464;2024-01-15T14:25:22;12.00;;;3.35;;
42682;SDS011;28293;50.930;3.464;2024-01-15T14:27:49;11.40;;;2.50;;
42682;SDS011;28293;50.930;3.464;2024-01-15T14:30:15;13.73;;;4.13;;
42682;SDS011;28293;50.930;3.464;2024-01-15T14:32:42;17.38;;;4.28;;
42682;SDS011;28293;50.930;3.464;2024-01-15T14:35:08;11.65;;;4.90;;
42682;SDS011;28293;50.930;3.464;2024-01-15T14:37:38;11.95;;;5.75;;
42682;SDS011;28293;50.930;3.464;2024-01-15T14:40:04;10.07;;;3.92;;
42682;SDS011;28293;50.930;3.464;2024-01-15T14:42:33;17.60;;;6.85;;
42682;SDS011;28293;50.930;3.464;2024-01-15T14:45:02;18.30;;;5.15;;
42682;SDS011;28293;50.930;3.464;2024-01-15T14:47:29;13.15;;;3.63;;